the time You need

Milano Marittima MTB

Milano Marittima, Ravenna   Italy

domenica 25 febbraio 2018

Percorsi

LUNGO - 30.0 Km

 

CORTO - 15.0 Km

Servizi

ADSCOSTPunti KS Ranking

Chip

Abilita il chip personale Abilita il chip personale

CLASSIFICA

LUNGO - 30.0 Km

Pos Atleta Sesso Cat PosC Team Tempo Media RTime
99997 REATI VITTORIA F MW1 - ASD BORN TO RUN 01:04:14.20 28,02 01:03:50.50
1 DE LORENZI ENRICO M M2 1 KTM FORTI E LIBERI 01:02:51.70 28,64 01:02:41.40
2 FABBRI CHRISTIAN M M3 1 TEAM PASSION FAENTINA 01:02:51.90 28,64 01:02:51.90
3 ZAMA LORENZO M M1 1 TEAM PASSION FAENTINA 01:02:53.70 28,62 01:02:45.45
4 GHERARDI ALESSANDRO M M1 2 ASD SALINBICI BIKE TEAM 01:04:17.80 28,00 01:04:07.50
5 CHIARINI LUCA M M3 2 ASD IMOLA BIKE 01:04:18.00 27,99 01:04:10.10
6 CARLI FABIO M ELMT 1 ASD SAMBI TEAM 01:04:18.08 27,99 01:04:06.08
7 LEONI GERMANO M M5 1 TEAM PASSION FAENTINA 01:04:18.10 27,99 01:04:18.10
8 FIORINI FABIO M M5 2 KTM FORTI E LIBERI 01:04:18.30 27,99 01:04:18.30
9 POLI EMANUELE M ELMT 2 SUPERNOVA FACTORY TEAM 01:04:18.80 27,99 01:03:54.30
10 PRATI ETTORE M M4 1 MDL RACING CREW ASD 01:04:18.90 27,99 01:04:07.10
11 GHETTI WILMER M M4 2 SURFING SHOP SPORT PROMOTION 01:04:19.80 27,99 01:04:19.80
12 BRAVACCINI MATTEO M M2 2 COMERO BIKE 01:04:24.20 27,95 01:04:16.16
13 CAPECE MATTIA M M1 3 INDIVIDUALE 01:05:06.30 27,65 01:04:54.00
14 FORESTIERI ALESSANDRO M M4 3 DEKA RIDERS TEAM BIKE ROMAGNA 01:05:08.20 27,64 01:04:57.57
15 FONTANELLI MATTEO M ELMT 3 ASD IMOLA BIKE 01:05:08.30 27,64 01:04:50.20
16 PASINI GIOVANNI M M3 3 ASD FORTI E LIBERI 01:05:08.40 27,64 01:04:58.58
17 BANDINI GIACOMO M ELMT 4 TEAM PASSION FAENTINA 01:05:09.00 27,63 01:04:51.51
18 BRUGNOLI EDOARDO M M3 4 GORO BIKE TEAM 01:05:09.30 27,63 01:04:58.58
19 MANTOVANI ANDREA M ELMT 5 ASD GCM MIGLIARINO 01:05:10.50 27,62 01:05:00.00
20 VENTURINI MIRKO M M3 5 TEAM PASSION FAENTINA 01:05:18.20 27,57 01:05:06.10
21 PADOAN GIORGIO M M6 1 ASD ADRIA BIKE 01:05:25.50 27,52 01:05:10.20
22 CONFICONI SAMUELE M M4 4 KTM FORTI E LIBERI 01:06:05.40 27,24 01:05:45.10
23 BOSCOLO MASSIMO M M4 5 ASD ADRIA BIKE 01:06:05.60 27,24 01:05:51.51
24 RINALDI MATTEO M ELMT 6 ASD DOROBIKE TEAM 01:06:08.30 27,22 01:05:56.56
25 CHIARUCCI STEFANO M ELMT 7 ASD NOXON RACING TEAM 01:06:28.30 27,08 01:06:17.20
26 SAPORETTI PATRICK M M1 4 ASD SALINBICI BIKE TEAM 01:06:28.49 27,08 01:06:13.39
27 STRIOLO DANIELE M M2 3 ASD SAMBI TEAM 01:06:28.50 27,08 01:06:15.15
28 CICOGNANI FABRIZIO M M1 5 180 BPM 01:06:29.30 27,07 01:06:15.15
29 TINI STEFANO M M3 6 TEAM BIKE INNOVATION FOCUS ROSTI 01:06:29.58 27,07 01:06:16.28
30 ZANETTI GIANNI M M3 7 TEAM ZANETTI ASD 01:06:30.00 27,07 01:06:28.28
31 AMARANTI FEDERICO M ELMT 8 ASD LR BIKE TEAM 01:06:30.70 27,07 01:06:14.20
32 CHIARUCCI FABRIZIO M M6 2 DEKA RIDERS TEAM BIKE ROMAGNA 01:06:44.80 26,97 01:06:33.70
33 FABBRI DAVIDE M M3 8 ASD H3O RACE TEAM 01:07:08.80 26,81 01:06:54.80
34 MANIGRASSO GIOVANNI M M4 6 ASD IMOLA BIKE 01:07:09.60 26,81 01:06:55.50
35 CAVAZZINI ARTURO M M2 4 ASD CICLO ESTENSE MESOLA 01:07:13.30 26,78 01:07:00.30
36 MANTOVANI MICHELE M M1 6 CICLO SPORT RIVA´ 01:07:13.50 26,78 01:07:01.20
37 LANDI MATTEO M M3 9 ASD SAMBI TEAM 01:07:13.80 26,78 01:06:58.30
38 MAROCCHI MAICOL M M1 7 TEAM BIKE INNOVATION FOCUS ROSTI 01:07:13.90 26,78 01:06:56.40
39 MAURO EMANUELE M ELMT 9 TEAM PASSION FAENTINA 01:07:20.30 26,73 01:07:05.30
40 PRETOLANI TIBERIO M M5 3 ASD IMOLA BIKE 01:07:34.90 26,64 01:07:26.10
41 MONTANARI MAURO M M3 10 TEAM PASSION FAENTINA 01:08:07.40 26,43 01:07:52.52
42 MANUZZI MIRCO M ELMT 10 GOOD BIKE AS RONCOFREDDESE 01:08:07.50 26,43 01:08:07.50
43 CALLINI RICCARDO M ELMT 11 DUE RUOTE FORLI RIDEFORFUN! 01:08:08.20 26,42 01:07:46.46
44 SAMA GIOVANNI M M4 7 ASD SAMBI TEAM 01:08:08.50 26,42 01:07:52.00
45 ZOLI MATTIA M ELMT 12 SUPERNOVA FACTORY TEAM 01:08:09.90 26,41 01:07:45.60
46 EUSEBI LORENZO M ELMT 13 PROBIKERS 01:08:11.90 26,40 01:07:57.10
47 RENZI NICOLA M M4 8 PROBIKERS 01:08:13.10 26,39 01:08:02.02
48 PAPETTI MIRKO M M1 8 ASD SAMBI TEAM 01:09:14.40 26,00 01:09:01.10
49 PINI GIANMARCO M ELMT 14 PROBIKERS 01:09:39.90 25,84 01:09:21.80
50 SANCHES RODRIGO M M2 5 TEAM PASSION FAENTINA 01:09:40.30 25,84 01:09:26.26
51 LUBRANO GIORGIO MASSIMO M M2 6 TEAM SPARROW CLUB MAGNAVACCA 01:09:40.80 25,84 01:09:27.50
52 BARTOLINI LUCA M M5 4 PEDALE BELLARIESE 01:09:41.48 25,83 01:09:23.23
53 PETAZZONI DAVIDE M M5 5 BAMBANA BIKE 01:09:41.50 25,83 01:09:22.20
54 MEDRI FRANCESCO M M5 6 BARACCA LUGO MTB 01:09:44.20 25,81 01:09:31.20
55 GUERRINI EMANUELE M M2 7 TEAM ZANETTI ASD 01:10:42.40 25,46 01:10:26.26
56 MONTANARI IVANO M M4 9 ASD SAMBI TEAM 01:10:44.40 25,45 01:10:28.40
57 PIRAZZOLI ANDREA M M1 9 SUPERNOVA FACTORY TEAM 01:10:44.58 25,45 01:10:20.20
58 SEGURINI LUIGI ALBERTO M M3 11 ASD SAMBI TEAM 01:10:45.00 25,44 01:10:26.26
59 SIMONI MARIO M M5 7 TEAM SPARROW CLUB MAGNAVACCA 01:10:45.30 25,44 01:10:30.30
60 BURZACCA ANDREA M M6 3 SURFING SHOP SPORT PROMOTION 01:10:45.40 25,44 01:10:29.10
61 ALTAMURA PAOLO M M5 8 BAMBANA BIKE 01:10:45.50 25,44 01:10:23.50
62 BISSIONI LORENZO M M7 1 TEAM TORPEDO BIKE 01:10:45.80 25,44 01:10:34.80
63 BERTARELLI LUCA M M4 10 ASD SAMBI TEAM 01:10:47.20 25,43 01:10:31.31
64 CAPPELLI MICHELE M ELMT 15 PROBIKERS 01:10:49.10 25,42 01:10:32.00
65 MANTOVAN FEDERICO M M2 8 CICLI ERMAN SQUADRA CORSE 01:11:07.90 25,31 01:10:42.60
66 CAPACCI ADRIANO M M2 9 AS TARTANA BIKE 01:12:12.80 24,93 01:11:56.30
67 FERRARI ENRICO M M1 10 DAFNE SPORT 01:12:14.50 24,92 01:11:59.00
68 GUERRA MICHELE M M4 11 BARACCA LUGO MTB 01:12:14.90 24,92 01:12:02.10
69 GRANDI SAMUELE M M1 11 ASD IMOLA BIKE 01:12:15.00 24,91 01:11:58.58
70 PANDOLFINI MAURIZIO M M7 2 ASD MEDINOX 01:12:15.30 24,91 01:12:02.00
71 PLATANIA CARMELO M M3 12 ASD SAMBI TEAM 01:12:15.50 24,91 01:11:57.10
72 SCARDOVI SILVERIO M M4 12 DEKA RIDERS TEAM BIKE ROMAGNA 01:12:17.00 24,90 01:11:53.53
73 GALLETTI DAVIDE M M3 13 ASD SAMBI TEAM 01:12:17.70 24,90 01:11:57.70
74 BIANCHINI GIORGIO M M6 4 BAMBANA BIKE 01:12:18.00 24,90 01:12:07.07
75 MESSINA GIUSEPPE M M6 5 BAMBANA BIKE 01:12:21.00 24,88 01:11:58.58
76 FERRIOLI DEVIS M M3 14 TEAM PASSION FAENTINA 01:12:36.70 24,79 01:12:24.24
77 SANTI DANILO M M4 13 PANIGALESE 01:13:37.50 24,45 01:13:14.00
78 BRUNELLI ENRICO M M3 15 GRUPPO TNT 01:14:19.00 24,22 01:13:58.58
79 RIGHINI MAURIZIO M M3 16 CICLISTICA MEDICINA 1912 01:14:25.70 24,19 01:14:03.03
80 GALAMINI MAURO M M5 9 BARACCA LUGO MTB 01:14:33.40 24,14 01:14:18.10
81 BRIGANTI GIANNI M M5 10 180 BPM 01:14:35.80 24,13 01:14:15.00
82 EMILIANI GIORGIO M M3 17 SPECIALISSIMA BIKE TEAM 01:14:36.70 24,13 01:14:16.16
83 RINALDINI PAOLO M M4 14 MT BOGHETTA TEAM 01:14:37.38 24,12 01:14:18.08
84 PISANI LUCA M M4 15 GRUPPO TNT 01:14:37.40 24,12 01:14:15.40
85 BELTRAMI MASSIMO M M5 11 GRUPPO TNT 01:14:38.00 24,12 01:14:17.17
86 CAVALLARI ALESSANDRO M M1 12 TEAM SPARROW CLUB MAGNAVACCA 01:14:38.50 24,12 01:14:25.25
87 VANNI DAVIDE M M4 16 ASD SALINBICI BIKE TEAM 01:14:38.70 24,12 01:14:12.60
88 FIUZZI ANDREA M M1 13 CICLI NERI TEAM 01:14:39.00 24,11 01:14:14.14
89 LANDINI LEONARDO M M2 10 CTBS ASD 01:14:43.20 24,09 01:14:23.23
90 PAPETTI FRANCESCO M M7 3 ASD SAMBI TEAM 01:15:01.70 23,99 01:14:45.70
91 ZOLLO CARLO M M6 6 KTM ASD SCATENATI 01:15:02.18 23,99 01:14:39.39
92 PACI MATTEO M M2 11 FIREMAN - BOLOGNA A.S.D. 01:15:02.20 23,99 01:14:41.41
93 SALSI PIER LUIGI M M5 12 ASD SAMBI TEAM 01:16:08.30 23,64 01:15:51.51
94 SPADONI ANDREA M M5 13 TEAM BIKE LAGOSANTO 01:16:08.90 23,64 01:15:45.40
95 BARBERINI EMANUELE M M4 17 ASD MEDINOX 01:16:09.90 23,64 01:15:42.70
96 PELLEGRINO PIERPAOLO M M2 12 ASD LE SALINE NATURA E SPORT 01:16:12.70 23,62 01:15:48.70
97 PAESANI PAOLO M M5 14 ROWA TEAM 01:16:12.90 23,62 01:15:45.70
98 BASSETTI MASSIMO M M7 4 180 BPM 01:16:13.40 23,62 01:15:53.00
99 BACCHILEGA IVAN M ELMT 16 FLY ASD 01:17:30.20 23,23 01:17:08.08
100 BRIGLIADORI MATTEO M M1 14 ASD MEDINOX 01:17:32.00 23,22 01:17:06.06
101 CARUSO ANTONELLA F MW2 1 SPECIALISSIMA BIKE TEAM 01:17:33.20 23,21 01:17:21.21
102 MONTIRONI GIANCARLO M M7 5 ASD SAMBI TEAM 01:17:34.00 23,21 01:17:08.08
103 MINIELLO LEO M M2 13 TEAM BIKE COCIF.COM ASD 01:17:34.20 23,21 01:17:14.14
104 GARAVINI DAVIDE M M5 15 180 BPM 01:17:49.70 23,13 01:17:24.20
105 MALDINI SIMONE M M4 18 CICLI MATTEONI - BIANCHI 01:17:50.50 23,13 01:17:22.10
106 RIGHETTI PIETRO M M7 6 BAMBANA BIKE 01:17:54.10 23,11 01:17:32.32
107 STRAVAGANTI GIACOMO M ELMT 17 TEAM SPARROW CLUB MAGNAVACCA 01:19:11.40 22,73 01:18:52.10
108 ZAPPATA DOMENICO M M1 15 TEAM SPARROW CLUB MAGNAVACCA 01:19:13.20 22,72 01:18:49.49
109 DI LEVA PIETRO M M5 16 BAMBANA BIKE 01:19:14.50 22,72 01:18:52.52
110 RAVAIOLI LORENZO M M5 17 ASD COTEKINO OFF ROAD 01:19:14.90 22,72 01:18:49.60
111 CIMINI MARCO M M3 18 ASD TEAM BIKE VALCONCA 01:20:05.00 22,48 01:19:43.43
112 SIROTTI MATTEO M M4 19 AFTER SKULL ROUGE RACING 01:20:12.18 22,44 01:19:43.18
113 DI EGIDIO MARCO M M2 14 AVIS PRATOVECCHIO-ERREPI-LEE COUGAN 01:20:12.20 22,44 01:19:52.52
114 BALDISSERRI PIETRO M M6 7 LEPRI DI ROMAGNA 01:20:13.20 22,44 01:19:51.51
115 FABBRI DAVIDE M M4 20 ASD SALINBICI BIKE TEAM 01:20:13.40 22,44 01:19:47.47
116 VENTURI DANIELE M ELMT 18 BAMBANA BIKE 01:20:41.90 22,31 01:20:14.80
117 ANTONELLINI ELENA F MW2 2 DEKA RIDERS TEAM BIKE ROMAGNA 01:21:15.48 22,15 01:20:50.50
118 BARONCINI MORENO M M5 18 DEKA RIDERS TEAM BIKE ROMAGNA 01:21:15.50 22,15 01:20:51.51
119 BONCI MARIO M JUN 1 ASD LE SALINE NATURA E SPORT 01:22:02.20 21,94 01:21:36.36
120 SUCCI LEONELLI MAURIZIO M M7 7 TEAM SPARROW CLUB MAGNAVACCA 01:22:02.40 21,94 01:21:45.30
121 BORDONI PIETRO M M5 19 ASD MEDINOX 01:22:05.50 21,93 01:21:52.20
122 BALDININI DANIELA F MW2 3 ASD MEDINOX 01:22:05.70 21,93 01:21:53.40
123 SEMIANCHUK HEORHI M ELMT 19 ASD SAMBI TEAM 01:22:10.70 21,91 01:21:51.20
124 ARGINI FABRIZIO M M5 20 FRM FACTORY RACING TEAM ASD 01:22:13.90 21,89 01:21:50.10
125 PAGANINI FABIO M M6 8 180 BPM 01:22:18.20 21,87 01:21:58.58
126 NERVEGNA ANDREA M M1 16 SNOOPY BIKE ASD 01:22:18.90 21,87 01:21:50.10
127 GALLEGATI PAOLO M M3 19 ASD SAMBI TEAM 01:22:25.50 21,84 01:22:08.20
128 PRUCCOLI ANDREA M ELMT 20 ASD LE SALINE NATURA E SPORT 01:22:26.70 21,84 01:22:01.20
129 MANDOLESI MATTEO M ELMT 21 ASD LE SALINE NATURA E SPORT 01:22:27.00 21,83 01:22:00.00
130 CAVULLA ANNARITA F MW2 4 ASD IMOLA BIKE 01:22:31.50 21,81 01:22:13.13
131 CIMINIELLO CHRISTIAN M ELMT 22 ASD SALINBICI BIKE TEAM 01:23:20.00 21,60 01:23:04.04
132 PETRINI TIBERIO M M2 15 SNOOPY BIKE ASD 01:23:45.20 21,49 01:23:17.17
133 PELLEGRINI MARCO M M7 8 BAMBANA BIKE 01:23:47.60 21,48 01:23:24.30
134 GROSSI LUCA M M6 9 TEAM ZANETTI ASD 01:23:48.10 21,48 01:23:27.27
135 CHILLO TANIA F MW2 5 ASD IMOLA BIKE 01:23:59.00 21,43 01:23:44.00
136 SCARDOVI MASSIMILIANO M M2 16 FIREMAN - BOLOGNA A.S.D. 01:24:10.90 21,39 01:23:49.40
137 DONATI ENRICO M ELMT 23 TEAM PASSION FAENTINA 01:24:51.90 21,21 01:24:24.90
138 CAPRA LUCIA PAOLA F MW2 6 TEAM PASSION FAENTINA 01:25:27.80 21,06 01:24:59.80
139 DOLLAKU FLORIAN M M2 17 ASD SAMBI TEAM 01:25:38.20 21,02 01:25:15.15
140 BOSI ALICE F MW1 1 DEKA RIDERS TEAM BIKE ROMAGNA 01:26:55.18 20,71 01:26:30.30
141 CAPPELLAZZI DENNY M M1 17 DEKA RIDERS TEAM BIKE ROMAGNA 01:26:55.20 20,71 01:26:30.00
142 CAVALIERI BRENTANI ELISA F MW1 2 SEA CYCLING ASD 01:27:13.70 20,64 01:26:47.70
143 CALVANO DAVIDE M M2 18 PEDAL CLUB OFFICINA A PEDALI ASD 01:27:21.90 20,61 01:26:59.10
144 BACCHILEGA ROBERTO M M5 21 TEAM PASSION FAENTINA 01:27:22.80 20,60 01:26:59.70
145 FELUSIAK ANNA F MW1 3 MT BOGHETTA TEAM 01:28:23.70 20,37 01:28:03.70
146 PASOLINI DANIELE M JUN 2 ASD LE SALINE NATURA E SPORT 01:29:36.40 20,09 01:29:09.10
147 BORRILLO GIANFRANCO M M4 21 MT BOGHETTA TEAM 01:31:33.40 19,66 01:31:12.40
148 ZUFFI MAILA F MW1 4 FRM FACTORY RACING TEAM ASD 01:31:34.20 19,66 01:31:10.20
149 TAMPELLINI GIANLUCA M M5 22 180 BPM 01:35:25.40 18,86 01:35:01.01
150 D´ONOFRIO VINCENZO M ELMT 24 ASD MEDINOX 01:35:26.30 18,86 01:35:04.04
151 DE VEREDICIS UGO M M3 20 BICI CASTEL DEL RIO ASD 01:47:01.60 16,82 01:46:42.50
152 BIOLCATI CRISTIAN M M1 18 TEAM SPARROW CLUB MAGNAVACCA 01:53:36.40 15,85 01:53:07.30
153 CACCHI LUCA M JUN 3 SPORT TIME SSD A.R.L 02:09:03.00 13,95 02:09:03.00
99997 ANCARANI ALESSIO M M1 - TEAM PASSION FAENTINA - - -
99997 CHIRICO ANTONIO M M2 - ASD SALINBICI BIKE TEAM - - -
99997 COCUZZA MASSIMO M M2 - ASD SALINBICI BIKE TEAM - - -
99997 DAL RE ELISEO M M3 - ASD SAMBI TEAM - - -
99997 FENATI GIANLUCA M M4 - BICI CASTEL DEL RIO ASD - - -
99997 ROSSI PAOLO M M2 - TEAM ZANETTI ASD - - -
99997 SAMBI CHRISTIAN M M3 - ASD SAMBI TEAM - - -

CORTO - 15.0 Km

Pos Atleta Sesso Cat PosC Team Tempo Media RTime
1 PENSERINI ELIA M ALL 1 ASD TEAM BIKE VALCONCA 00:45:00.30 20,00 00:45:00.30
2 RAVAIOLI MARCO M ALL 2 ASD COTEKINO OFF ROAD 00:45:01.50 19,99 00:45:01.50
3 PENSERINI NICOLO´ M ES 1 ASD TEAM BIKE VALCONCA 00:48:35.00 18,52 00:48:35.00
4 MONTANARI SAVERIO M ES 2 ASD LE SALINE NATURA E SPORT 00:49:54.80 18,04 00:49:54.80
5 MONTI MATTEO M ALL 3 ASD LE SALINE NATURA E SPORT 00:51:16.80 17,56 00:51:16.80
6 D´ONOFRIO MATTEO M ALL 4 ASD MEDINOX 00:59:18.20 15,18 00:59:18.20
7 TAMPELLINI LUCA M ES 3 VITAMINA TEAM 01:05:00.10 13,85 01:05:00.10